Findern, United Kingdom
Current Conditions -  °F | °C
As of 4:50 AM on Monday 22 Dec 2014 (Local Time) from EGNX Reporting Station
Broken Clouds Broken Clouds  
Wind Chill: 12°   Ceiling: 1500
Heat Index: 12°   Visibility: 6mi
Dew Point: 10°   Wind: 28mph
Humidity: 88%   Direction: 240°WSW
Pressure: 29.88"   Gusts: NA
Location:  52.87°N, 1.54°W
Report Text: EGNX 220450Z 24024KT 9999 BKN015 BKN022 12/10 Q1012
Loading
Personal Weather Stations






























Interactive Weather Map New forecast layout! Learn more

10-Day Weather Forecast

Advertisements
Track Severe Weather on mobile